createdAt,value
2022-09-28T00:01:25.737Z,5.67
2022-09-28T00:03:57.596Z,5.53
2022-09-28T00:06:27.953Z,5.72
2022-09-28T00:08:58.300Z,3.50
2022-09-28T00:11:28.214Z,5.83
2022-09-28T00:13:58.925Z,5.70
2022-09-28T00:16:29.916Z,3.90
2022-09-28T00:18:58.314Z,6.17
2022-09-28T00:21:28.316Z,7.10
2022-09-28T00:24:15.308Z,5.13
2022-09-28T00:26:46.708Z,7.18
2022-09-28T00:29:19.101Z,6.63
2022-09-28T00:31:48.162Z,4.30
2022-09-28T00:34:17.723Z,5.47
2022-09-28T00:36:47.911Z,5.57
2022-09-28T00:39:18.285Z,7.17
2022-09-28T00:41:47.896Z,4.50
2022-09-28T00:44:39.733Z,7.33
2022-09-28T00:47:35.502Z,5.03
2022-09-28T00:50:08.157Z,5.60
2022-09-28T00:52:40.863Z,7.17
2022-09-28T00:55:15.764Z,5.20
2022-09-28T00:57:48.802Z,5.77
2022-09-28T01:00:17.733Z,5.60
2022-09-28T01:02:47.064Z,6.27
2022-09-28T01:05:16.088Z,5.33
2022-09-28T01:07:45.629Z,5.13
2022-09-28T01:10:16.542Z,5.07
2022-09-28T01:12:44.856Z,6.07
2022-09-28T01:15:14.154Z,7.20
2022-09-28T01:17:59.952Z,7.00
2022-09-28T01:20:54.107Z,6.57
2022-09-28T01:23:55.317Z,8.67
2022-09-28T01:27:00.502Z,6.37
2022-09-28T01:29:44.993Z,6.90
2022-09-28T01:32:23.980Z,5.10
2022-09-28T01:34:57.595Z,7.20
2022-09-28T01:37:32.522Z,5.80
2022-09-28T01:40:06.376Z,7.47
2022-09-28T01:42:39.955Z,5.97
2022-09-28T01:45:16.066Z,6.83
2022-09-28T01:47:46.795Z,6.57
2022-09-28T01:50:18.884Z,5.23
2022-09-28T01:52:51.670Z,5.50
2022-09-28T01:55:27.531Z,2.87
2022-09-28T01:58:01.950Z,7.03
2022-09-28T02:00:30.696Z,6.43
2022-09-28T02:03:03.275Z,8.13
2022-09-28T02:05:35.120Z,5.77
2022-09-28T02:08:08.141Z,5.17
2022-09-28T02:10:41.852Z,5.13
2022-09-28T02:13:16.534Z,5.47
2022-09-28T02:15:51.374Z,6.05
2022-09-28T02:18:19.917Z,5.00
2022-09-28T02:20:58.188Z,3.97
2022-09-28T02:23:29.670Z,8.23
2022-09-28T02:26:03.517Z,5.77
2022-09-28T02:28:33.695Z,6.05
2022-09-28T02:31:02.704Z,5.47
2022-09-28T02:33:35.964Z,5.07
2022-09-28T02:36:05.327Z,4.70
2022-09-28T02:38:33.930Z,5.10
2022-09-28T02:41:07.835Z,5.37
2022-09-28T02:43:46.435Z,6.20
2022-09-28T02:46:24.410Z,5.93
2022-09-28T02:49:20.838Z,8.00
2022-09-28T02:52:06.062Z,4.87
2022-09-28T02:54:49.815Z,7.77
2022-09-28T02:57:32.992Z,6.33
2022-09-28T03:00:08.632Z,6.57
2022-09-28T03:02:46.822Z,6.90
2022-09-28T03:05:20.837Z,5.63
2022-09-28T03:07:58.392Z,5.53
2022-09-28T03:10:34.349Z,6.43
2022-09-28T03:13:04.257Z,5.63
2022-09-28T03:15:36.232Z,7.73
2022-09-28T03:18:05.382Z,9.83
2022-09-28T03:20:34.956Z,7.87
2022-09-28T03:23:23.946Z,4.43
2022-09-28T03:25:52.185Z,5.30
2022-09-28T03:28:21.463Z,5.83
2022-09-28T03:30:51.604Z,5.93
2022-09-28T03:33:21.095Z,7.80
2022-09-28T03:35:50.459Z,5.82
2022-09-28T03:38:19.653Z,4.70
2022-09-28T03:40:54.940Z,7.73
2022-09-28T03:43:24.536Z,6.23
2022-09-28T03:45:55.505Z,5.97
2022-09-28T03:48:29.884Z,6.60
2022-09-28T03:51:01.976Z,6.27
2022-09-28T03:53:30.752Z,5.50
2022-09-28T03:56:03.868Z,5.50
2022-09-28T03:58:32.412Z,5.50
2022-09-28T04:01:05.495Z,5.70
2022-09-28T04:03:34.384Z,4.93
2022-09-28T04:06:03.060Z,7.27
2022-09-28T04:08:31.622Z,6.23
2022-09-28T04:11:00.423Z,6.83
2022-09-28T04:13:30.030Z,7.07
2022-09-28T04:16:00.704Z,4.90
2022-09-28T04:18:31.390Z,7.87
2022-09-28T04:21:03.601Z,5.47
2022-09-28T04:23:32.030Z,4.60
2022-09-28T04:26:00.806Z,4.53
2022-09-28T04:28:46.735Z,5.80
2022-09-28T04:31:18.219Z,5.27
2022-09-28T04:33:48.069Z,4.50
2022-09-28T04:36:16.459Z,8.73
2022-09-28T04:38:53.473Z,7.23
2022-09-28T04:41:22.918Z,5.63
2022-09-28T04:43:52.072Z,6.03
2022-09-28T04:46:21.443Z,7.63
2022-09-28T04:48:51.461Z,6.30
2022-09-28T04:51:20.100Z,6.27
2022-09-28T04:53:48.413Z,7.33
2022-09-28T04:56:18.406Z,8.07
2022-09-28T04:58:51.764Z,7.40
2022-09-28T05:01:23.878Z,5.17
2022-09-28T05:03:53.699Z,4.57
2022-09-28T05:06:23.030Z,6.60
2022-09-28T05:08:51.471Z,4.47
2022-09-28T05:11:21.727Z,4.10
2022-09-28T05:13:50.606Z,5.27
2022-09-28T05:16:20.538Z,5.63
2022-09-28T05:18:48.890Z,5.70
2022-09-28T05:21:20.153Z,7.00
2022-09-28T05:23:49.107Z,8.30
2022-09-28T05:26:17.606Z,8.03
2022-09-28T05:28:46.547Z,5.60
2022-09-28T05:31:14.977Z,6.93
2022-09-28T05:33:43.370Z,7.70
2022-09-28T05:36:12.330Z,7.03
2022-09-28T05:38:42.021Z,5.67
2022-09-28T05:41:10.315Z,6.90
2022-09-28T05:43:39.095Z,4.33
2022-09-28T05:46:08.242Z,4.70
2022-09-28T05:48:36.604Z,6.97
2022-09-28T05:51:04.949Z,5.03
2022-09-28T05:53:33.246Z,5.23
2022-09-28T05:56:06.765Z,5.83
2022-09-28T05:58:35.075Z,8.37
2022-09-28T06:01:03.409Z,5.33
2022-09-28T06:03:31.700Z,6.57
2022-09-28T06:06:02.253Z,6.50
2022-09-28T06:08:32.188Z,5.27
2022-09-28T06:11:02.901Z,8.73
2022-09-28T06:13:32.165Z,5.30
2022-09-28T06:16:00.442Z,6.53
2022-09-28T06:18:28.705Z,6.60
2022-09-28T06:20:57.146Z,6.33
2022-09-28T06:23:25.464Z,7.83
2022-09-28T06:25:53.737Z,5.03
2022-09-28T06:28:23.456Z,8.03
2022-09-28T06:30:52.218Z,7.63
2022-09-28T06:33:21.960Z,6.80
2022-09-28T06:35:50.519Z,8.30
2022-09-28T06:38:18.764Z,12.20
2022-09-28T06:40:47.087Z,8.10
2022-09-28T06:43:16.382Z,6.33
2022-09-28T06:45:52.057Z,6.83
2022-09-28T06:48:20.944Z,6.20
2022-09-28T06:50:51.047Z,6.70
2022-09-28T06:53:19.389Z,5.13
2022-09-28T06:55:49.244Z,4.57
2022-09-28T06:58:19.733Z,7.33
2022-09-28T07:00:51.536Z,8.03
2022-09-28T07:03:22.150Z,11.80
2022-09-28T07:05:52.726Z,9.53
2022-09-28T07:08:24.399Z,7.10
2022-09-28T07:10:56.392Z,8.87
2022-09-28T07:16:16.156Z,8.17
2022-09-28T07:18:44.474Z,6.43
2022-09-28T07:21:25.937Z,8.27
2022-09-28T07:23:57.707Z,7.38
2022-09-28T07:26:26.769Z,7.67
2022-09-28T07:28:56.027Z,8.73
2022-09-28T07:31:26.508Z,6.25
2022-09-28T07:33:56.545Z,8.93
2022-09-28T07:36:24.874Z,11.23
2022-09-28T07:38:53.114Z,10.00
2022-09-28T07:41:32.278Z,11.30
2022-09-28T07:44:06.068Z,14.10
2022-09-28T07:46:36.993Z,10.07
2022-09-28T07:49:08.467Z,11.50
2022-09-28T07:51:39.890Z,16.30
2022-09-28T07:54:08.223Z,14.00
2022-09-28T07:56:36.503Z,12.15
2022-09-28T07:59:04.773Z,13.87
2022-09-28T08:01:33.103Z,13.93
2022-09-28T08:04:03.109Z,12.57
2022-09-28T08:06:31.919Z,12.13
2022-09-28T08:09:01.853Z,13.27
2022-09-28T08:11:30.702Z,7.45
2022-09-28T08:14:00.347Z,10.27
2022-09-28T08:16:30.232Z,15.88
2022-09-28T08:18:58.667Z,12.93
2022-09-28T08:21:45.545Z,13.70
2022-09-28T08:24:14.026Z,15.70
2022-09-28T08:26:43.210Z,11.33
2022-09-28T08:29:12.045Z,15.05
2022-09-28T08:31:40.379Z,14.55
2022-09-28T08:34:08.714Z,17.07
2022-09-28T08:36:38.979Z,22.15
2022-09-28T08:39:07.309Z,18.40
2022-09-28T08:41:44.663Z,16.05
2022-09-28T08:44:24.105Z,16.05
2022-09-28T08:46:57.322Z,18.55
2022-09-28T08:49:30.486Z,13.48
2022-09-28T08:52:04.744Z,12.18
2022-09-28T08:54:39.691Z,10.93
2022-09-28T08:57:12.976Z,15.27
2022-09-28T08:59:47.934Z,10.05
2022-09-28T09:02:22.492Z,10.90
2022-09-28T09:04:52.757Z,8.38
2022-09-28T09:07:45.879Z,11.68
2022-09-28T09:10:39.795Z,11.50
2022-09-28T09:13:21.299Z,10.27
2022-09-28T09:15:57.041Z,11.13
2022-09-28T09:18:34.366Z,9.45
2022-09-28T09:21:12.900Z,9.73
2022-09-28T09:23:51.583Z,13.13
2022-09-28T09:26:25.313Z,11.05
2022-09-28T09:29:21.489Z,13.35
2022-09-28T09:32:04.400Z,11.68
2022-09-28T09:35:01.893Z,12.55
2022-09-28T09:37:45.178Z,13.85
2022-09-28T09:40:30.726Z,11.13
2022-09-28T09:43:12.628Z,15.82
2022-09-28T09:46:02.003Z,13.35
2022-09-28T09:48:32.776Z,13.32
2022-09-28T09:51:06.018Z,13.60
2022-09-28T09:53:42.950Z,14.05
2022-09-28T09:56:19.750Z,10.00
2022-09-28T09:58:51.809Z,11.27
2022-09-28T10:01:24.734Z,16.90
2022-09-28T10:03:53.989Z,12.40
2022-09-28T10:06:28.535Z,11.05
2022-09-28T10:09:05.269Z,12.05
2022-09-28T10:11:39.312Z,12.40
2022-09-28T10:14:08.286Z,12.15
2022-09-28T10:16:37.372Z,11.93
2022-09-28T10:19:05.700Z,11.75
2022-09-28T10:21:37.667Z,9.27
2022-09-28T10:24:07.782Z,9.63
2022-09-28T10:26:41.883Z,10.95
2022-09-28T10:29:16.230Z,11.77
2022-09-28T10:31:46.341Z,10.18
2022-09-28T10:34:17.162Z,12.48
2022-09-28T10:36:55.265Z,9.52
2022-09-28T10:39:31.258Z,9.88
2022-09-28T10:42:04.377Z,13.57
2022-09-28T10:44:35.557Z,10.38
2022-09-28T10:47:08.046Z,11.50
2022-09-28T10:49:46.516Z,11.68
2022-09-28T10:52:34.293Z,10.63
2022-09-28T10:55:03.198Z,8.88
2022-09-28T10:57:36.902Z,6.72
2022-09-28T11:00:08.383Z,5.28
2022-09-28T11:02:39.186Z,6.00
2022-09-28T11:05:09.215Z,3.83
2022-09-28T11:07:49.927Z,4.95
2022-09-28T11:10:25.163Z,4.30
2022-09-28T11:12:55.841Z,4.28
2022-09-28T11:15:28.228Z,2.78
2022-09-28T11:17:56.764Z,4.13
2022-09-28T11:20:35.901Z,3.40
2022-09-28T11:23:20.569Z,4.63
2022-09-28T11:26:00.971Z,5.05
2022-09-28T11:28:37.153Z,4.57
2022-09-28T11:31:08.083Z,4.78
2022-09-28T11:33:39.103Z,4.15
2022-09-28T11:36:23.487Z,3.92
2022-09-28T11:39:01.084Z,3.90
2022-09-28T11:41:49.381Z,4.13
2022-09-28T11:44:37.386Z,4.90
2022-09-28T11:47:29.611Z,5.43
2022-09-28T11:50:03.267Z,4.65
2022-09-28T11:52:38.514Z,6.78
2022-09-28T11:55:13.693Z,5.00
2022-09-28T11:57:46.461Z,5.10
2022-09-28T12:00:20.791Z,4.00
2022-09-28T12:02:53.247Z,4.35
2022-09-28T12:05:25.830Z,2.90
2022-09-28T12:07:58.138Z,2.00
2022-09-28T12:10:37.188Z,1.90
2022-09-28T12:13:10.237Z,2.20
2022-09-28T12:16:13.256Z,2.05
2022-09-28T12:18:42.912Z,2.83
2022-09-28T12:21:23.616Z,3.05
2022-09-28T12:23:53.073Z,1.52
2022-09-28T12:26:29.635Z,1.70
2022-09-28T12:29:00.930Z,1.88
2022-09-28T12:31:38.725Z,3.08
2022-09-28T12:34:07.220Z,2.65
2022-09-28T12:36:47.438Z,2.67
2022-09-28T12:39:56.977Z,2.67
2022-09-28T12:42:44.357Z,2.25
2022-09-28T12:45:38.675Z,3.25
2022-09-28T12:48:39.434Z,2.85
2022-09-28T12:51:16.805Z,2.47
2022-09-28T12:54:01.825Z,2.00
2022-09-28T12:56:37.424Z,3.55
2022-09-28T12:59:15.573Z,2.85
2022-09-28T13:02:02.451Z,3.53
2022-09-28T13:05:00.800Z,2.70
2022-09-28T13:07:35.142Z,2.50
2022-09-28T13:10:16.804Z,3.95
2022-09-28T13:12:59.136Z,4.22
2022-09-28T13:15:37.185Z,3.35
2022-09-28T13:18:18.046Z,3.78
2022-09-28T13:20:59.011Z,4.88
2022-09-28T13:23:31.186Z,2.92
2022-09-28T13:26:05.098Z,4.15
2022-09-28T13:28:35.742Z,3.10
2022-09-28T13:31:05.835Z,3.90
2022-09-28T13:33:36.972Z,4.18
2022-09-28T13:36:37.744Z,3.05
2022-09-28T13:39:30.881Z,3.15
2022-09-28T13:42:00.218Z,4.60
2022-09-28T13:44:42.089Z,2.72
2022-09-28T13:47:22.681Z,3.03
2022-09-28T13:50:05.302Z,2.70
2022-09-28T13:52:45.530Z,3.67
2022-09-28T13:55:33.045Z,4.05
2022-09-28T13:58:05.457Z,3.83
2022-09-28T14:00:39.661Z,3.67
2022-09-28T14:03:25.355Z,3.33
2022-09-28T14:06:11.540Z,4.78
2022-09-28T14:08:46.802Z,2.90
2022-09-28T14:11:44.067Z,3.10
2022-09-28T14:14:45.000Z,3.60
2022-09-28T14:17:47.875Z,3.63
2022-09-28T14:20:18.249Z,3.72
2022-09-28T14:23:03.367Z,3.45
2022-09-28T14:25:34.760Z,4.30
2022-09-28T14:28:16.868Z,4.00
2022-09-28T14:30:51.475Z,4.88
2022-09-28T14:33:27.393Z,5.75
2022-09-28T14:35:59.048Z,4.57
2022-09-28T14:38:49.707Z,4.30
2022-09-28T14:41:31.415Z,4.47
2022-09-28T14:44:03.758Z,6.70
2022-09-28T14:46:44.810Z,4.88
2022-09-28T14:49:45.062Z,4.93
2022-09-28T14:52:18.349Z,5.13
2022-09-28T14:54:55.317Z,5.45
2022-09-28T14:57:29.483Z,4.78
2022-09-28T15:00:00.850Z,7.80
2022-09-28T15:02:33.482Z,7.35
2022-09-28T15:05:14.223Z,5.32
2022-09-28T15:07:48.261Z,5.60
2022-09-28T15:10:27.739Z,2.88
2022-09-28T15:12:58.037Z,2.60
2022-09-28T15:15:31.893Z,2.60
2022-09-28T15:18:27.142Z,2.05
2022-09-28T15:20:56.449Z,2.47
2022-09-28T15:23:34.723Z,3.80
2022-09-28T15:26:06.719Z,3.00
2022-09-28T15:28:39.453Z,3.35
2022-09-28T15:31:07.754Z,2.92
2022-09-28T15:33:54.351Z,2.90
2022-09-28T15:36:26.265Z,3.50
2022-09-28T15:38:57.911Z,4.80
2022-09-28T15:41:27.455Z,3.65
2022-09-28T15:44:30.287Z,3.55
2022-09-28T15:47:14.949Z,3.05
2022-09-28T15:49:46.808Z,4.50
2022-09-28T15:52:27.979Z,5.18
2022-09-28T15:54:56.702Z,3.53
2022-09-28T15:57:38.127Z,3.53
2022-09-28T16:00:25.034Z,6.03
2022-09-28T16:03:05.656Z,4.50
2022-09-28T16:05:46.316Z,4.68
2022-09-28T16:08:21.499Z,4.45
2022-09-28T16:11:03.640Z,4.78
2022-09-28T16:13:32.550Z,4.60
2022-09-28T16:16:03.021Z,7.07
2022-09-28T16:18:33.888Z,6.75
2022-09-28T16:21:37.674Z,6.60
2022-09-28T16:24:06.491Z,11.50
2022-09-28T16:26:37.426Z,6.28
2022-09-28T16:29:11.188Z,6.57
2022-09-28T16:31:51.502Z,5.70
2022-09-28T16:34:21.238Z,8.27
2022-09-28T16:36:51.056Z,9.32
2022-09-28T16:39:20.723Z,8.18
2022-09-28T16:41:53.038Z,6.25
2022-09-28T16:44:25.865Z,6.80
2022-09-28T16:46:58.582Z,9.85
2022-09-28T16:49:27.003Z,8.82
2022-09-28T16:51:55.492Z,6.88
2022-09-28T16:54:54.056Z,6.50
2022-09-28T16:57:22.872Z,6.15
2022-09-28T16:59:51.157Z,8.98
2022-09-28T17:05:16.014Z,8.55
2022-09-28T17:07:45.628Z,10.40
2022-09-28T17:10:19.479Z,6.60
2022-09-28T17:12:48.050Z,7.03
2022-09-28T17:15:19.640Z,8.63
2022-09-28T17:17:50.631Z,8.13
2022-09-28T17:20:22.956Z,6.68
2022-09-28T17:22:51.437Z,7.40
2022-09-28T17:25:20.415Z,7.80
2022-09-28T17:27:50.284Z,11.45
2022-09-28T17:30:23.773Z,8.60
2022-09-28T17:32:55.623Z,8.63
2022-09-28T17:35:25.279Z,6.07
2022-09-28T17:37:54.529Z,7.28
2022-09-28T17:40:25.049Z,8.60
2022-09-28T17:42:56.139Z,9.35
2022-09-28T17:45:27.166Z,13.10
2022-09-28T17:47:57.431Z,9.20
2022-09-28T17:50:28.292Z,6.80
2022-09-28T17:52:59.938Z,7.38
2022-09-28T17:55:30.559Z,9.30
2022-09-28T17:57:59.463Z,7.50
2022-09-28T18:00:28.664Z,9.38
2022-09-28T18:02:59.742Z,11.48
2022-09-28T18:05:30.431Z,9.18
2022-09-28T18:07:59.278Z,10.40
2022-09-28T18:10:30.395Z,11.90
2022-09-28T18:12:58.873Z,16.05
2022-09-28T18:15:27.483Z,11.95
2022-09-28T18:17:57.189Z,10.32
2022-09-28T18:20:25.465Z,9.23
2022-09-28T18:22:53.777Z,13.95
2022-09-28T18:25:22.493Z,14.27
2022-09-28T18:27:50.743Z,10.40
2022-09-28T18:30:19.125Z,12.88
2022-09-28T18:32:47.370Z,16.38
2022-09-28T18:35:22.029Z,12.68
2022-09-28T18:37:51.389Z,10.82
2022-09-28T18:40:20.587Z,11.40
2022-09-28T18:42:51.110Z,11.60
2022-09-28T18:45:19.776Z,16.45
2022-09-28T18:47:48.035Z,13.52
2022-09-28T18:50:17.806Z,13.75
2022-09-28T18:52:47.304Z,14.52
2022-09-28T18:55:16.009Z,16.73
2022-09-28T18:57:44.822Z,16.02
2022-09-28T19:00:15.059Z,12.52
2022-09-28T19:02:44.268Z,17.20
2022-09-28T19:05:12.651Z,14.45
2022-09-28T19:07:42.437Z,12.15
2022-09-28T19:10:10.800Z,17.02
2022-09-28T19:12:39.708Z,11.25
2022-09-28T19:15:09.804Z,11.48
2022-09-28T19:17:38.192Z,11.68
2022-09-28T19:20:07.740Z,16.10
2022-09-28T19:22:36.463Z,11.73
2022-09-28T19:25:09.790Z,15.65
2022-09-28T19:27:38.367Z,11.52
2022-09-28T19:30:08.192Z,12.07
2022-09-28T19:32:36.912Z,14.02
2022-09-28T19:35:06.347Z,11.48
2022-09-28T19:37:39.497Z,13.57
2022-09-28T19:40:10.340Z,14.75
2022-09-28T19:42:39.674Z,11.93
2022-09-28T19:45:10.995Z,16.92
2022-09-28T19:47:39.310Z,17.45
2022-09-28T19:50:10.264Z,12.65
2022-09-28T19:52:39.108Z,15.63
2022-09-28T19:55:10.061Z,14.77
2022-09-28T19:57:38.713Z,18.05
2022-09-28T20:00:09.250Z,18.20
2022-09-28T20:02:37.703Z,16.05
2022-09-28T20:05:09.270Z,15.27
2022-09-28T20:07:39.397Z,16.17
2022-09-28T20:10:10.209Z,13.75
2022-09-28T20:12:39.149Z,15.80
2022-09-28T20:15:09.359Z,12.82
2022-09-28T20:17:37.709Z,14.00
2022-09-28T20:20:06.594Z,15.45
2022-09-28T20:22:35.305Z,13.32
2022-09-28T20:25:04.206Z,13.00
2022-09-28T20:27:34.569Z,14.60
2022-09-28T20:30:03.054Z,16.05
2022-09-28T20:32:33.337Z,12.13
2022-09-28T20:35:01.653Z,15.85
2022-09-28T20:37:30.996Z,14.32
2022-09-28T20:40:01.061Z,14.35
2022-09-28T20:42:32.126Z,15.13
2022-09-28T20:45:01.798Z,16.92
2022-09-28T20:47:30.082Z,14.57
2022-09-28T20:49:58.375Z,15.98
2022-09-28T20:52:26.624Z,12.88
2022-09-28T20:54:54.932Z,11.50
2022-09-28T20:57:23.238Z,13.18
2022-09-28T20:59:54.653Z,14.45
2022-09-28T21:02:25.333Z,9.75
2022-09-28T21:04:54.257Z,14.35
2022-09-28T21:07:22.466Z,14.05
2022-09-28T21:09:50.973Z,14.68
2022-09-28T21:12:19.283Z,12.13
2022-09-28T21:14:47.574Z,17.67
2022-09-28T21:17:16.019Z,11.73
2022-09-28T21:19:45.668Z,15.13
2022-09-28T21:22:14.226Z,14.65
2022-09-28T21:24:42.567Z,13.35
2022-09-28T21:27:10.837Z,16.13
2022-09-28T21:29:39.152Z,15.13
2022-09-28T21:32:08.354Z,12.65
2022-09-28T21:34:36.885Z,14.40
2022-09-28T21:37:07.331Z,16.58
2022-09-28T21:39:35.570Z,12.13
2022-09-28T21:42:04.097Z,11.85
2022-09-28T21:44:32.579Z,12.35
2022-09-28T21:47:00.925Z,11.68
2022-09-28T21:49:29.182Z,7.63
2022-09-28T21:51:57.477Z,9.32
2022-09-28T21:54:28.959Z,12.10
2022-09-28T21:56:57.238Z,8.75
2022-09-28T21:59:25.973Z,11.38
2022-09-28T22:01:54.279Z,7.93
2022-09-28T22:04:22.629Z,7.85
2022-09-28T22:06:50.944Z,8.95
2022-09-28T22:09:19.306Z,10.13
2022-09-28T22:11:50.400Z,10.82
2022-09-28T22:14:18.729Z,8.52
2022-09-28T22:16:46.990Z,9.05
2022-09-28T22:19:15.301Z,9.52
2022-09-28T22:21:43.711Z,6.70
2022-09-28T22:24:12.073Z,9.05
2022-09-28T22:26:40.589Z,9.98
2022-09-28T22:29:11.410Z,8.77
2022-09-28T22:31:41.568Z,15.13
2022-09-28T22:34:10.680Z,9.00
2022-09-28T22:36:38.987Z,9.93
2022-09-28T22:39:07.344Z,8.50
2022-09-28T22:41:35.649Z,11.05
2022-09-28T22:44:04.008Z,11.95
2022-09-28T22:46:33.791Z,7.93
2022-09-28T22:49:02.415Z,8.40
2022-09-28T22:51:31.909Z,12.48
2022-09-28T22:54:01.255Z,11.27
2022-09-28T22:56:29.679Z,12.30
2022-09-28T22:58:58.169Z,12.50
2022-09-28T23:01:28.077Z,13.07
2022-09-28T23:03:58.465Z,8.10
2022-09-28T23:06:29.103Z,8.85
2022-09-28T23:08:57.794Z,10.40
2022-09-28T23:11:26.106Z,9.32
2022-09-28T23:13:55.991Z,7.28
2022-09-28T23:16:25.787Z,9.00
2022-09-28T23:18:55.442Z,8.88
2022-09-28T23:21:27.023Z,10.02
2022-09-28T23:23:57.306Z,8.60
2022-09-28T23:26:27.697Z,7.55
2022-09-28T23:28:56.315Z,8.30
2022-09-28T23:31:26.020Z,8.07
2022-09-28T23:33:58.377Z,7.35
2022-09-28T23:36:28.624Z,8.00
2022-09-28T23:38:56.965Z,7.80
2022-09-28T23:41:25.323Z,7.75
2022-09-28T23:43:53.583Z,8.75
2022-09-28T23:46:21.998Z,7.47
2022-09-28T23:48:50.562Z,6.50
2022-09-28T23:51:19.052Z,8.40
2022-09-28T23:53:48.750Z,7.05
2022-09-28T23:56:17.085Z,7.25
2022-09-28T23:58:46.069Z,9.00
